sensor_id;sensor_type;location;lat;lon;timestamp;pressure;altitude;pressure_sealevel;temperature;humidity
4449;BME280;2237;51.870;6.160;2023-04-26T00:01:24;101786.38;;;7.38;100.00
4449;BME280;2237;51.870;6.160;2023-04-26T00:03:52;101790.69;;;7.33;100.00
4449;BME280;2237;51.870;6.160;2023-04-26T00:06:19;101787.19;;;7.27;100.00
4449;BME280;2237;51.870;6.160;2023-04-26T00:08:45;101784.53;;;7.21;100.00
4449;BME280;2237;51.870;6.160;2023-04-26T00:11:12;101794.91;;;7.19;100.00
4449;BME280;2237;51.870;6.160;2023-04-26T00:13:38;101787.13;;;7.16;100.00
4449;BME280;2237;51.870;6.160;2023-04-26T00:16:05;101782.81;;;7.18;100.00
4449;BME280;2237;51.870;6.160;2023-04-26T00:18:31;101789.72;;;7.16;100.00
4449;BME280;2237;51.870;6.160;2023-04-26T00:20:58;101787.94;;;7.12;100.00
4449;BME280;2237;51.870;6.160;2023-04-26T00:23:24;101791.34;;;7.08;100.00
4449;BME280;2237;51.870;6.160;2023-04-26T00:25:51;101787.03;;;7.07;100.00
4449;BME280;2237;51.870;6.160;2023-04-26T00:28:17;101791.34;;;7.08;100.00
4449;BME280;2237;51.870;6.160;2023-04-26T00:30:44;101787.88;;;7.03;100.00
4449;BME280;2237;51.870;6.160;2023-04-26T00:33:14;101787.00;;;7.01;100.00
4449;BME280;2237;51.870;6.160;2023-04-26T00:35:40;101783.56;;;7.02;100.00
4449;BME280;2237;51.870;6.160;2023-04-26T00:38:06;101780.97;;;7.02;100.00
4449;BME280;2237;51.870;6.160;2023-04-26T00:40:33;101784.41;;;7.03;100.00
4449;BME280;2237;51.870;6.160;2023-04-26T00:43:01;101786.97;;;6.98;100.00
4449;BME280;2237;51.870;6.160;2023-04-26T00:45:28;101781.75;;;6.92;100.00
4449;BME280;2237;51.870;6.160;2023-04-26T00:47:55;101780.00;;;6.90;100.00
4449;BME280;2237;51.870;6.160;2023-04-26T00:50:21;101781.72;;;6.89;100.00
4449;BME280;2237;51.870;6.160;2023-04-26T00:52:49;101783.47;;;6.90;100.00
4449;BME280;2237;51.870;6.160;2023-04-26T00:55:15;101778.25;;;6.89;100.00
4449;BME280;2237;51.870;6.160;2023-04-26T00:57:44;101769.56;;;6.82;100.00
4449;BME280;2237;51.870;6.160;2023-04-26T01:00:11;101779.03;;;6.77;100.00
4449;BME280;2237;51.870;6.160;2023-04-26T01:02:38;101776.41;;;6.74;100.00
4449;BME280;2237;51.870;6.160;2023-04-26T01:05:04;101772.94;;;6.72;100.00
4449;BME280;2237;51.870;6.160;2023-04-26T01:07:32;101773.78;;;6.69;100.00
4449;BME280;2237;51.870;6.160;2023-04-26T01:09:58;101774.63;;;6.67;100.00
4449;BME280;2237;51.870;6.160;2023-04-26T01:12:25;101772.88;;;6.61;100.00
4449;BME280;2237;51.870;6.160;2023-04-26T01:14:52;101781.44;;;6.59;100.00
4449;BME280;2237;51.870;6.160;2023-04-26T01:17:18;101784.03;;;6.59;100.00
4449;BME280;2237;51.870;6.160;2023-04-26T01:19:48;101787.50;;;6.58;100.00
4449;BME280;2237;51.870;6.160;2023-04-26T01:22:15;101784.03;;;6.56;100.00
4449;BME280;2237;51.870;6.160;2023-04-26T01:24:43;101783.13;;;6.52;100.00
4449;BME280;2237;51.870;6.160;2023-04-26T01:27:10;101783.94;;;6.47;100.00
4449;BME280;2237;51.870;6.160;2023-04-26T01:29:36;101783.94;;;6.47;100.00
4449;BME280;2237;51.870;6.160;2023-04-26T01:32:03;101783.03;;;6.45;100.00
4449;BME280;2237;51.870;6.160;2023-04-26T01:34:29;101791.63;;;6.42;100.00
4449;BME280;2237;51.870;6.160;2023-04-26T01:36:58;101791.66;;;6.44;100.00
4449;BME280;2237;51.870;6.160;2023-04-26T01:39:24;101784.75;;;6.41;100.00
4449;BME280;2237;51.870;6.160;2023-04-26T01:41:50;101777.81;;;6.39;100.00
4449;BME280;2237;51.870;6.160;2023-04-26T01:44:17;101782.13;;;6.40;100.00
4449;BME280;2237;51.870;6.160;2023-04-26T01:46:43;101782.97;;;6.37;100.00
4449;BME280;2237;51.870;6.160;2023-04-26T01:49:10;101778.66;;;6.35;100.00
4449;BME280;2237;51.870;6.160;2023-04-26T01:51:36;101786.38;;;6.32;100.00
4449;BME280;2237;51.870;6.160;2023-04-26T01:54:03;101785.50;;;6.31;100.00
4449;BME280;2237;51.870;6.160;2023-04-26T01:56:29;101781.13;;;6.25;100.00
4449;BME280;2237;51.870;6.160;2023-04-26T01:58:56;101783.72;;;6.25;100.00
4449;BME280;2237;51.870;6.160;2023-04-26T02:01:22;101785.41;;;6.20;100.00
4449;BME280;2237;51.870;6.160;2023-04-26T02:03:49;101783.66;;;6.19;100.00
4449;BME280;2237;51.870;6.160;2023-04-26T02:06:16;101790.53;;;6.17;100.00
4449;BME280;2237;51.870;6.160;2023-04-26T02:08:43;101782.75;;;6.14;100.00
4449;BME280;2237;51.870;6.160;2023-04-26T02:11:10;101794.75;;;6.12;100.00
4449;BME280;2237;51.870;6.160;2023-04-26T02:13:36;101793.88;;;6.10;100.00
4449;BME280;2237;51.870;6.160;2023-04-26T02:16:03;101775.72;;;6.04;100.00
4449;BME280;2237;51.870;6.160;2023-04-26T02:18:30;101795.56;;;6.05;100.00
4449;BME280;2237;51.870;6.160;2023-04-26T02:20:56;101792.94;;;6.04;100.00
4449;BME280;2237;51.870;6.160;2023-04-26T02:23:28;101785.16;;;5.99;100.00
4449;BME280;2237;51.870;6.160;2023-04-26T02:25:55;101785.09;;;5.96;100.00
4449;BME280;2237;51.870;6.160;2023-04-26T02:28:22;101789.41;;;5.94;100.00
4449;BME280;2237;51.870;6.160;2023-04-26T02:30:48;101784.19;;;5.93;100.00
4449;BME280;2237;51.870;6.160;2023-04-26T02:33:14;101787.66;;;5.92;100.00
4449;BME280;2237;51.870;6.160;2023-04-26T02:35:41;101791.03;;;5.88;100.00
4449;BME280;2237;51.870;6.160;2023-04-26T02:38:07;101783.22;;;5.85;100.00
4449;BME280;2237;51.870;6.160;2023-04-26T02:40:33;101785.75;;;5.80;100.00
4449;BME280;2237;51.870;6.160;2023-04-26T02:43:00;101778.78;;;5.76;100.00
4449;BME280;2237;51.870;6.160;2023-04-26T02:45:27;101778.78;;;5.76;100.00
4449;BME280;2237;51.870;6.160;2023-04-26T02:47:53;101777.97;;;5.77;100.00
4449;BME280;2237;51.870;6.160;2023-04-26T02:50:20;101780.50;;;5.76;100.00
4449;BME280;2237;51.870;6.160;2023-04-26T02:52:46;101778.78;;;5.76;100.00
4449;BME280;2237;51.870;6.160;2023-04-26T02:55:13;101786.50;;;5.73;100.00
4449;BME280;2237;51.870;6.160;2023-04-26T02:57:40;101784.69;;;5.66;100.00
4449;BME280;2237;51.870;6.160;2023-04-26T03:00:07;101779.50;;;5.66;100.00
4449;BME280;2237;51.870;6.160;2023-04-26T03:02:34;101784.69;;;5.66;100.00
4449;BME280;2237;51.870;6.160;2023-04-26T03:05:01;101783.81;;;5.64;100.00
4449;BME280;2237;51.870;6.160;2023-04-26T03:07:28;101785.47;;;5.60;100.00
4449;BME280;2237;51.870;6.160;2023-04-26T03:09:54;101778.56;;;5.58;100.00
4449;BME280;2237;51.870;6.160;2023-04-26T03:12:21;101781.94;;;5.52;100.00
4449;BME280;2237;51.870;6.160;2023-04-26T03:14:47;101780.19;;;5.50;100.00
4449;BME280;2237;51.870;6.160;2023-04-26T03:17:13;101775.84;;;5.47;100.00
4449;BME280;2237;51.870;6.160;2023-04-26T03:19:40;101785.31;;;5.47;100.00
4449;BME280;2237;51.870;6.160;2023-04-26T03:22:06;101774.97;;;5.45;100.00
4449;BME280;2237;51.870;6.160;2023-04-26T03:24:32;101786.09;;;5.43;100.00
4449;BME280;2237;51.870;6.160;2023-04-26T03:26:59;101784.41;;;5.45;100.00
4449;BME280;2237;51.870;6.160;2023-04-26T03:29:25;101780.91;;;5.41;100.00
4449;BME280;2237;51.870;6.160;2023-04-26T03:31:52;101781.72;;;5.37;100.00
4449;BME280;2237;51.870;6.160;2023-04-26T03:34:18;101771.38;;;5.37;100.00
4449;BME280;2237;51.870;6.160;2023-04-26T03:36:44;101773.13;;;5.37;100.00
4449;BME280;2237;51.870;6.160;2023-04-26T03:39:11;101771.34;;;5.34;100.00
4449;BME280;2237;51.870;6.160;2023-04-26T03:41:37;101779.13;;;5.36;100.00
4449;BME280;2237;51.870;6.160;2023-04-26T03:44:05;101770.50;;;5.35;100.00
4449;BME280;2237;51.870;6.160;2023-04-26T03:46:32;101773.91;;;5.34;100.00
4449;BME280;2237;51.870;6.160;2023-04-26T03:48:58;101770.44;;;5.31;100.00
4449;BME280;2237;51.870;6.160;2023-04-26T03:51:25;101766.91;;;5.26;100.00
4449;BME280;2237;51.870;6.160;2023-04-26T03:53:53;101768.59;;;5.24;100.00
4449;BME280;2237;51.870;6.160;2023-04-26T03:56:19;101761.66;;;5.20;100.00
4449;BME280;2237;51.870;6.160;2023-04-26T03:58:46;101761.66;;;5.20;100.00
4449;BME280;2237;51.870;6.160;2023-04-26T04:01:12;101765.09;;;5.19;100.00
4449;BME280;2237;51.870;6.160;2023-04-26T04:03:39;101766.81;;;5.18;100.00
4449;BME280;2237;51.870;6.160;2023-04-26T04:06:07;101764.22;;;5.17;100.00
4449;BME280;2237;51.870;6.160;2023-04-26T04:08:33;101762.53;;;5.20;100.00
4449;BME280;2237;51.870;6.160;2023-04-26T04:10:59;101757.31;;;5.17;100.00
4449;BME280;2237;51.870;6.160;2023-04-26T04:13:26;101769.38;;;5.17;100.00
4449;BME280;2237;51.870;6.160;2023-04-26T04:15:53;101769.34;;;5.15;100.00
4449;BME280;2237;51.870;6.160;2023-04-26T04:18:19;101766.75;;;5.13;100.00
4449;BME280;2237;51.870;6.160;2023-04-26T04:20:46;101774.41;;;5.09;100.00
4449;BME280;2237;51.870;6.160;2023-04-26T04:23:12;101771.81;;;5.07;100.00
4449;BME280;2237;51.870;6.160;2023-04-26T04:25:38;101780.41;;;5.06;100.00
4449;BME280;2237;51.870;6.160;2023-04-26T04:28:05;101775.28;;;5.09;100.00
4449;BME280;2237;51.870;6.160;2023-04-26T04:30:31;101777.03;;;5.10;100.00
4449;BME280;2237;51.870;6.160;2023-04-26T04:32:57;101770.13;;;5.11;100.00
4449;BME280;2237;51.870;6.160;2023-04-26T04:35:25;101770.19;;;5.14;100.00
4449;BME280;2237;51.870;6.160;2023-04-26T04:37:54;101774.50;;;5.15;100.00
4449;BME280;2237;51.870;6.160;2023-04-26T04:40:24;101774.56;;;5.17;100.00
4449;BME280;2237;51.870;6.160;2023-04-26T04:42:51;101772.03;;;5.21;100.00
4449;BME280;2237;51.870;6.160;2023-04-26T04:45:19;101777.25;;;5.26;100.00
4449;BME280;2237;51.870;6.160;2023-04-26T04:47:45;101774.69;;;5.29;100.00
4449;BME280;2237;51.870;6.160;2023-04-26T04:50:12;101772.16;;;5.32;100.00
4449;BME280;2237;51.870;6.160;2023-04-26T04:52:38;101772.25;;;5.38;100.00
4449;BME280;2237;51.870;6.160;2023-04-26T04:55:05;101774.88;;;5.39;100.00
4449;BME280;2237;51.870;6.160;2023-04-26T04:57:31;101779.25;;;5.46;100.00
4449;BME280;2237;51.870;6.160;2023-04-26T04:59:57;101779.34;;;5.51;100.00
4449;BME280;2237;51.870;6.160;2023-04-26T05:02:24;101785.44;;;5.56;100.00
4449;BME280;2237;51.870;6.160;2023-04-26T05:04:51;101779.47;;;5.60;100.00
4449;BME280;2237;51.870;6.160;2023-04-26T05:07:17;101779.50;;;5.66;100.00
4449;BME280;2237;51.870;6.160;2023-04-26T05:09:44;101783.00;;;5.69;100.00
4449;BME280;2237;51.870;6.160;2023-04-26T05:12:10;101783.09;;;5.76;100.00
4449;BME280;2237;51.870;6.160;2023-04-26T05:14:37;101784.84;;;5.78;100.00
4449;BME280;2237;51.870;6.160;2023-04-26T05:17:03;101787.47;;;5.81;100.00
4449;BME280;2237;51.870;6.160;2023-04-26T05:19:30;101788.38;;;5.85;100.00
4449;BME280;2237;51.870;6.160;2023-04-26T05:21:57;101790.19;;;5.90;100.00
4449;BME280;2237;51.870;6.160;2023-04-26T05:24:23;101797.13;;;5.91;100.00
4449;BME280;2237;51.870;6.160;2023-04-26T05:26:49;101798.03;;;5.96;100.00
4449;BME280;2237;51.870;6.160;2023-04-26T05:29:16;101805.88;;;6.04;100.00
4449;BME280;2237;51.870;6.160;2023-04-26T05:31:43;101811.19;;;6.14;100.00
4449;BME280;2237;51.870;6.160;2023-04-26T05:34:09;101802.59;;;6.18;100.00
4449;BME280;2237;51.870;6.160;2023-04-26T05:36:35;101799.09;;;6.13;100.00
4449;BME280;2237;51.870;6.160;2023-04-26T05:39:02;101807.75;;;6.17;100.00
4449;BME280;2237;51.870;6.160;2023-04-26T05:41:30;101804.38;;;6.21;100.00
4449;BME280;2237;51.870;6.160;2023-04-26T05:43:57;101802.66;;;6.23;100.00
4449;BME280;2237;51.870;6.160;2023-04-26T05:46:23;101815.56;;;6.21;100.00
4449;BME280;2237;51.870;6.160;2023-04-26T05:48:50;101813.00;;;6.24;100.00
4449;BME280;2237;51.870;6.160;2023-04-26T05:51:17;101811.38;;;6.30;100.00
4449;BME280;2237;51.870;6.160;2023-04-26T05:53:43;101821.75;;;6.34;100.00
4449;BME280;2237;51.870;6.160;2023-04-26T05:56:09;101822.63;;;6.36;100.00
4449;BME280;2237;51.870;6.160;2023-04-26T05:58:36;101818.31;;;6.37;100.00
4449;BME280;2237;51.870;6.160;2023-04-26T06:01:02;101813.19;;;6.40;100.00
4449;BME280;2237;51.870;6.160;2023-04-26T06:03:28;101818.41;;;6.47;100.00
4449;BME280;2237;51.870;6.160;2023-04-26T06:05:56;101823.63;;;6.50;100.00
4449;BME280;2237;51.870;6.160;2023-04-26T06:08:24;101818.59;;;6.65;100.00
4449;BME280;2237;51.870;6.160;2023-04-26T06:10:50;101811.81;;;6.76;100.00
4449;BME280;2237;51.870;6.160;2023-04-26T06:13:17;101819.72;;;6.92;100.00
4449;BME280;2237;51.870;6.160;2023-04-26T06:15:43;101818.84;;;6.91;100.00
4449;BME280;2237;51.870;6.160;2023-04-26T06:18:09;101821.50;;;6.99;100.00
4449;BME280;2237;51.870;6.160;2023-04-26T06:20:36;101825.00;;;7.05;100.00
4449;BME280;2237;51.870;6.160;2023-04-26T06:23:02;101826.81;;;7.17;100.00
4449;BME280;2237;51.870;6.160;2023-04-26T06:25:29;101831.19;;;7.19;100.00
4449;BME280;2237;51.870;6.160;2023-04-26T06:27:56;101832.94;;;7.26;100.00
4449;BME280;2237;51.870;6.160;2023-04-26T06:30:23;101833.81;;;7.31;100.00
4449;BME280;2237;51.870;6.160;2023-04-26T06:32:50;101831.25;;;7.34;100.00
4449;BME280;2237;51.870;6.160;2023-04-26T06:35:16;101833.06;;;7.42;100.00
4449;BME280;2237;51.870;6.160;2023-04-26T06:37:42;101825.31;;;7.49;100.00
4449;BME280;2237;51.870;6.160;2023-04-26T06:40:09;101826.25;;;7.59;100.00
4449;BME280;2237;51.870;6.160;2023-04-26T06:42:36;101830.53;;;7.54;100.00
4449;BME280;2237;51.870;6.160;2023-04-26T06:45:02;101821.16;;;7.74;100.00
4449;BME280;2237;51.870;6.160;2023-04-26T06:47:29;101821.25;;;7.92;100.00
4449;BME280;2237;51.870;6.160;2023-04-26T06:49:55;101822.91;;;7.81;100.00
4449;BME280;2237;51.870;6.160;2023-04-26T06:52:21;101825.50;;;7.82;100.00
4449;BME280;2237;51.870;6.160;2023-04-26T06:54:48;101825.53;;;7.90;100.00
4449;BME280;2237;51.870;6.160;2023-04-26T06:57:22;101826.44;;;8.00;100.00
4449;BME280;2237;51.870;6.160;2023-04-26T06:59:48;101822.22;;;8.23;100.00
4449;BME280;2237;51.870;6.160;2023-04-26T07:02:15;101829.13;;;8.19;100.00
4449;BME280;2237;51.870;6.160;2023-04-26T07:04:41;101831.81;;;8.37;100.00
4449;BME280;2237;51.870;6.160;2023-04-26T07:07:08;101831.84;;;8.46;100.00
4449;BME280;2237;51.870;6.160;2023-04-26T07:09:38;101837.91;;;8.55;100.00
4449;BME280;2237;51.870;6.160;2023-04-26T07:12:04;101839.66;;;8.72;100.00
4449;BME280;2237;51.870;6.160;2023-04-26T07:14:31;101837.91;;;8.50;100.00
4449;BME280;2237;51.870;6.160;2023-04-26T07:16:57;101837.06;;;8.59;100.00
4449;BME280;2237;51.870;6.160;2023-04-26T07:19:24;101852.63;;;8.71;100.00
4449;BME280;2237;51.870;6.160;2023-04-26T07:21:50;101845.69;;;8.62;100.00
4449;BME280;2237;51.870;6.160;2023-04-26T07:24:16;101844.03;;;8.90;100.00
4449;BME280;2237;51.870;6.160;2023-04-26T07:26:43;101841.44;;;9.05;100.00
4449;BME280;2237;51.870;6.160;2023-04-26T07:29:09;101848.34;;;9.15;100.00
4449;BME280;2237;51.870;6.160;2023-04-26T07:31:35;101840.53;;;9.32;100.00
4449;BME280;2237;51.870;6.160;2023-04-26T07:34:02;101845.66;;;9.70;100.00
4449;BME280;2237;51.870;6.160;2023-04-26T07:36:28;101840.44;;;9.82;100.00
4449;BME280;2237;51.870;6.160;2023-04-26T07:38:54;101841.31;;;9.76;100.00
4449;BME280;2237;51.870;6.160;2023-04-26T07:41:21;101839.59;;;9.77;100.00
4449;BME280;2237;51.870;6.160;2023-04-26T07:43:47;101837.81;;;9.88;100.00
4449;BME280;2237;51.870;6.160;2023-04-26T07:46:13;101840.44;;;9.89;100.00
4449;BME280;2237;51.870;6.160;2023-04-26T07:48:40;101836.09;;;9.91;100.00
4449;BME280;2237;51.870;6.160;2023-04-26T07:51:09;101841.31;;;9.76;100.00
4449;BME280;2237;51.870;6.160;2023-04-26T07:53:36;101845.69;;;9.63;100.00
4449;BME280;2237;51.870;6.160;2023-04-26T07:56:06;101845.72;;;9.56;97.38
4449;BME280;2237;51.870;6.160;2023-04-26T07:58:34;101839.53;;;9.96;93.62
4449;BME280;2237;51.870;6.160;2023-04-26T08:01:01;101840.34;;;10.21;90.72
4449;BME280;2237;51.870;6.160;2023-04-26T08:03:28;101845.31;;;10.63;89.95
4449;BME280;2237;51.870;6.160;2023-04-26T08:05:55;101840.84;;;10.81;87.55
4449;BME280;2237;51.870;6.160;2023-04-26T08:08:25;101842.63;;;10.71;84.79
4449;BME280;2237;51.870;6.160;2023-04-26T08:10:52;101846.88;;;10.86;83.95
4449;BME280;2237;51.870;6.160;2023-04-26T08:13:18;101843.44;;;10.84;81.10
4449;BME280;2237;51.870;6.160;2023-04-26T08:15:45;101840.91;;;10.73;74.34
4449;BME280;2237;51.870;6.160;2023-04-26T08:18:11;101841.94;;;10.43;76.37
4449;BME280;2237;51.870;6.160;2023-04-26T08:20:38;101843.44;;;10.81;73.47
4449;BME280;2237;51.870;6.160;2023-04-26T08:23:04;101850.19;;;11.10;73.37
4449;BME280;2237;51.870;6.160;2023-04-26T08:25:31;101844.28;;;10.83;69.74
4449;BME280;2237;51.870;6.160;2023-04-26T08:28:00;101856.50;;;10.79;69.92
4449;BME280;2237;51.870;6.160;2023-04-26T08:30:27;101856.56;;;10.70;70.57
4449;BME280;2237;51.870;6.160;2023-04-26T08:32:53;101852.25;;;10.64;69.94
4449;BME280;2237;51.870;6.160;2023-04-26T08:35:19;101860.19;;;10.45;72.27
4449;BME280;2237;51.870;6.160;2023-04-26T08:37:46;101859.25;;;10.56;72.98
4449;BME280;2237;51.870;6.160;2023-04-26T08:40:13;101860.19;;;10.40;74.10
4449;BME280;2237;51.870;6.160;2023-04-26T08:42:40;101866.00;;;10.86;73.12
4449;BME280;2237;51.870;6.160;2023-04-26T08:45:09;101864.06;;;11.14;67.00
4449;BME280;2237;51.870;6.160;2023-04-26T08:47:42;101867.22;;;11.48;65.55
4449;BME280;2237;51.870;6.160;2023-04-26T08:50:11;101861.94;;;11.54;61.31
4449;BME280;2237;51.870;6.160;2023-04-26T08:52:41;101861.72;;;11.79;60.35
4449;BME280;2237;51.870;6.160;2023-04-26T08:55:08;101852.84;;;11.96;59.09
4449;BME280;2237;51.870;6.160;2023-04-26T08:57:35;101848.75;;;11.69;60.03
4449;BME280;2237;51.870;6.160;2023-04-26T09:00:03;101857.44;;;11.74;60.17
4449;BME280;2237;51.870;6.160;2023-04-26T09:02:40;101860.94;;;11.70;58.83
4449;BME280;2237;51.870;6.160;2023-04-26T09:05:08;101852.19;;;11.77;58.93
4449;BME280;2237;51.870;6.160;2023-04-26T09:10:06;101859.19;;;11.72;58.01
4449;BME280;2237;51.870;6.160;2023-04-26T09:12:34;101860.16;;;11.60;58.96
4449;BME280;2237;51.870;6.160;2023-04-26T09:15:00;101853.75;;;11.92;56.29
4449;BME280;2237;51.870;6.160;2023-04-26T09:17:30;101847.72;;;11.86;55.95
4449;BME280;2237;51.870;6.160;2023-04-26T09:19:59;101846.34;;;11.51;56.25
4449;BME280;2237;51.870;6.160;2023-04-26T09:22:33;101849.63;;;11.72;57.49
4449;BME280;2237;51.870;6.160;2023-04-26T09:25:02;101849.00;;;11.45;57.18
4449;BME280;2237;51.870;6.160;2023-04-26T09:27:35;101844.88;;;11.22;58.41
4449;BME280;2237;51.870;6.160;2023-04-26T09:38:05;101845.31;;;11.64;58.98
4449;BME280;2237;51.870;6.160;2023-04-26T09:40:41;101840.88;;;11.78;55.52
4449;BME280;2237;51.870;6.160;2023-04-26T09:43:12;101834.00;;;11.69;54.52
4449;BME280;2237;51.870;6.160;2023-04-26T09:45:43;101837.44;;;11.68;55.23
4449;BME280;2237;51.870;6.160;2023-04-26T09:50:44;101848.53;;;10.97;58.38
4449;BME280;2237;51.870;6.160;2023-04-26T09:55:52;101839.66;;;11.21;54.99
4449;BME280;2237;51.870;6.160;2023-04-26T09:58:18;101841.03;;;11.58;53.73
4449;BME280;2237;51.870;6.160;2023-04-26T10:00:49;101829.28;;;11.99;52.52
4449;BME280;2237;51.870;6.160;2023-04-26T10:03:17;101832.81;;;11.98;49.57
4449;BME280;2237;51.870;6.160;2023-04-26T10:05:43;101832.03;;;11.89;51.18
4449;BME280;2237;51.870;6.160;2023-04-26T10:08:11;101835.44;;;11.95;51.63
4449;BME280;2237;51.870;6.160;2023-04-26T10:10:37;101828.34;;;12.06;50.58
4449;BME280;2237;51.870;6.160;2023-04-26T10:13:05;101830.28;;;12.54;51.07
4449;BME280;2237;51.870;6.160;2023-04-26T10:15:31;101827.31;;;12.19;50.40
4449;BME280;2237;51.870;6.160;2023-04-26T10:17:58;101828.28;;;12.12;49.42
4449;BME280;2237;51.870;6.160;2023-04-26T10:20:27;101823.53;;;12.39;48.40
4449;BME280;2237;51.870;6.160;2023-04-26T10:22:56;101820.41;;;12.74;47.20
4449;BME280;2237;51.870;6.160;2023-04-26T10:25:39;101828.94;;;12.27;48.21
4449;BME280;2237;51.870;6.160;2023-04-26T10:28:07;101827.72;;;12.51;47.44
4449;BME280;2237;51.870;6.160;2023-04-26T10:30:53;101827.38;;;12.75;47.35
4449;BME280;2237;51.870;6.160;2023-04-26T10:33:20;101822.88;;;12.85;47.81
4449;BME280;2237;51.870;6.160;2023-04-26T10:36:04;101826.25;;;12.91;47.74
4449;BME280;2237;51.870;6.160;2023-04-26T10:38:31;101827.53;;;12.65;49.82
4449;BME280;2237;51.870;6.160;2023-04-26T10:41:26;101828.69;;;12.45;49.21
4449;BME280;2237;51.870;6.160;2023-04-26T10:43:52;101827.50;;;12.02;49.87
4449;BME280;2237;51.870;6.160;2023-04-26T10:46:38;101825.97;;;12.52;49.95
4449;BME280;2237;51.870;6.160;2023-04-26T10:49:16;101818.69;;;12.11;51.34
4449;BME280;2237;51.870;6.160;2023-04-26T10:52:08;101822.09;;;12.17;53.26
4449;BME280;2237;51.870;6.160;2023-04-26T10:54:56;101820.75;;;11.84;52.46
4449;BME280;2237;51.870;6.160;2023-04-26T10:57:46;101821.41;;;12.02;53.04
4449;BME280;2237;51.870;6.160;2023-04-26T11:00:24;101830.06;;;11.24;52.76
4449;BME280;2237;51.870;6.160;2023-04-26T11:02:56;101829.44;;;10.97;57.55
4449;BME280;2237;51.870;6.160;2023-04-26T11:05:36;101835.41;;;11.09;61.32
4449;BME280;2237;51.870;6.160;2023-04-26T11:08:24;101833.84;;;10.90;65.52
4449;BME280;2237;51.870;6.160;2023-04-26T11:13:38;101839.72;;;11.12;61.89
4449;BME280;2237;51.870;6.160;2023-04-26T11:16:07;101835.44;;;11.03;63.15
4449;BME280;2237;51.870;6.160;2023-04-26T11:18:35;101836.19;;;11.19;62.04
4449;BME280;2237;51.870;6.160;2023-04-26T11:21:03;101830.63;;;11.55;62.00
4449;BME280;2237;51.870;6.160;2023-04-26T11:23:30;101825.72;;;11.25;57.03
4449;BME280;2237;51.870;6.160;2023-04-26T11:26:02;101832.66;;;11.26;58.35
4449;BME280;2237;51.870;6.160;2023-04-26T11:28:34;101833.41;;;11.39;58.88
4449;BME280;2237;51.870;6.160;2023-04-26T11:31:01;101824.00;;;11.22;58.00
4449;BME280;2237;51.870;6.160;2023-04-26T11:33:29;101826.41;;;11.45;58.88
4449;BME280;2237;51.870;6.160;2023-04-26T11:35:56;101820.13;;;11.61;61.00
4449;BME280;2237;51.870;6.160;2023-04-26T11:38:25;101812.91;;;11.89;57.88
4449;BME280;2237;51.870;6.160;2023-04-26T11:41:02;101817.81;;;12.12;55.93
4449;BME280;2237;51.870;6.160;2023-04-26T11:43:35;101819.50;;;12.17;54.46
4449;BME280;2237;51.870;6.160;2023-04-26T11:46:03;101805.97;;;12.51;55.07
4449;BME280;2237;51.870;6.160;2023-04-26T11:48:30;101811.47;;;12.90;53.82
4449;BME280;2237;51.870;6.160;2023-04-26T11:50:59;101802.69;;;12.93;52.18
4449;BME280;2237;51.870;6.160;2023-04-26T11:53:35;101809.47;;;13.04;52.80
4449;BME280;2237;51.870;6.160;2023-04-26T11:56:25;101814.53;;;13.17;51.31
4449;BME280;2237;51.870;6.160;2023-04-26T11:58:51;101812.19;;;13.93;50.67
4449;BME280;2237;51.870;6.160;2023-04-26T12:01:23;101796.66;;;14.26;48.82
4449;BME280;2237;51.870;6.160;2023-04-26T12:03:57;101808.13;;;14.20;48.56
4449;BME280;2237;51.870;6.160;2023-04-26T12:06:28;101805.16;;;14.38;46.90
4449;BME280;2237;51.870;6.160;2023-04-26T12:08:56;101804.03;;;14.48;45.50
4449;BME280;2237;51.870;6.160;2023-04-26T12:11:22;101803.78;;;15.29;44.59
4449;BME280;2237;51.870;6.160;2023-04-26T12:13:48;101810.94;;;14.89;41.57
4449;BME280;2237;51.870;6.160;2023-04-26T12:16:15;101807.50;;;15.21;41.09
4449;BME280;2237;51.870;6.160;2023-04-26T12:18:52;101796.78;;;15.64;40.64
4449;BME280;2237;51.870;6.160;2023-04-26T12:21:19;101805.41;;;15.98;39.35
4449;BME280;2237;51.870;6.160;2023-04-26T12:23:45;101810.78;;;15.63;37.96
4449;BME280;2237;51.870;6.160;2023-04-26T12:26:14;101805.72;;;15.21;38.94
4449;BME280;2237;51.870;6.160;2023-04-26T12:28:41;101810.53;;;15.72;40.12
4449;BME280;2237;51.870;6.160;2023-04-26T12:31:08;101807.06;;;15.38;39.29
4449;BME280;2237;51.870;6.160;2023-04-26T12:33:34;101811.25;;;15.78;38.85
4449;BME280;2237;51.870;6.160;2023-04-26T12:36:10;101813.03;;;16.07;37.59
4449;BME280;2237;51.870;6.160;2023-04-26T12:38:38;101809.06;;;15.62;38.16
4449;BME280;2237;51.870;6.160;2023-04-26T12:41:04;101813.03;;;15.10;39.96
4449;BME280;2237;51.870;6.160;2023-04-26T12:43:30;101807.41;;;15.24;38.81
4449;BME280;2237;51.870;6.160;2023-04-26T12:45:57;101807.31;;;15.28;39.29
4449;BME280;2237;51.870;6.160;2023-04-26T12:48:23;101810.91;;;15.24;39.08
4449;BME280;2237;51.870;6.160;2023-04-26T12:50:50;101805.66;;;14.91;40.06
4449;BME280;2237;51.870;6.160;2023-04-26T12:53:16;101809.84;;;15.32;39.34
4449;BME280;2237;51.870;6.160;2023-04-26T12:55:43;101799.84;;;15.46;39.17
4449;BME280;2237;51.870;6.160;2023-04-26T12:58:10;101807.09;;;16.58;38.45
4449;BME280;2237;51.870;6.160;2023-04-26T13:00:36;101804.22;;;16.93;36.69
4449;BME280;2237;51.870;6.160;2023-04-26T13:03:03;101802.09;;;17.55;35.83
4449;BME280;2237;51.870;6.160;2023-04-26T13:05:29;101798.34;;;17.36;35.27
4449;BME280;2237;51.870;6.160;2023-04-26T13:07:57;101808.84;;;17.87;33.40
4449;BME280;2237;51.870;6.160;2023-04-26T13:10:27;101814.16;;;17.85;33.50
4449;BME280;2237;51.870;6.160;2023-04-26T13:12:53;101809.16;;;17.55;33.56
4449;BME280;2237;51.870;6.160;2023-04-26T13:15:19;101806.13;;;17.39;33.72
4449;BME280;2237;51.870;6.160;2023-04-26T13:17:46;101806.13;;;17.14;34.21
4449;BME280;2237;51.870;6.160;2023-04-26T13:20:13;101807.31;;;17.81;33.99
4449;BME280;2237;51.870;6.160;2023-04-26T13:22:39;101799.19;;;18.32;33.80
4449;BME280;2237;51.870;6.160;2023-04-26T13:25:08;101805.91;;;17.71;34.53
4449;BME280;2237;51.870;6.160;2023-04-26T13:27:35;101798.63;;;18.24;34.44
4449;BME280;2237;51.870;6.160;2023-04-26T13:30:02;101796.56;;;18.09;33.47
4449;BME280;2237;51.870;6.160;2023-04-26T13:32:28;101802.06;;;17.80;32.69